createdAt,value
2018-12-16T00:01:55.208Z,55.98
2018-12-16T00:04:24.290Z,55.75
2018-12-16T00:06:53.500Z,56.37
2018-12-16T00:09:22.806Z,55.15
2018-12-16T00:11:51.856Z,60.23
2018-12-16T00:14:20.934Z,62.75
2018-12-16T00:16:50.451Z,57.03
2018-12-16T00:19:19.534Z,52.40
2018-12-16T00:21:48.634Z,56.90
2018-12-16T00:24:18.160Z,59.73
2018-12-16T00:26:58.254Z,66.45
2018-12-16T00:29:27.645Z,63.75
2018-12-16T00:31:56.713Z,68.17
2018-12-16T00:34:25.786Z,64.07
2018-12-16T00:36:55.237Z,62.15
2018-12-16T00:39:24.282Z,66.95
2018-12-16T00:41:53.509Z,69.55
2018-12-16T00:44:22.833Z,66.90
2018-12-16T00:46:51.978Z,70.60
2018-12-16T00:49:21.093Z,67.80
2018-12-16T00:51:50.430Z,68.75
2018-12-16T00:54:19.514Z,66.77
2018-12-16T00:56:48.629Z,72.15
2018-12-16T00:59:17.788Z,66.10
2018-12-16T01:01:46.862Z,65.15
2018-12-16T01:04:15.937Z,61.05
2018-12-16T01:06:45.302Z,60.35
2018-12-16T01:09:14.388Z,63.33
2018-12-16T01:11:43.466Z,71.55
2018-12-16T01:14:12.787Z,74.75
2018-12-16T01:16:41.825Z,68.47
2018-12-16T01:19:11.342Z,73.72
2018-12-16T01:21:40.800Z,75.35
2018-12-16T01:24:09.876Z,67.90
2018-12-16T01:26:38.938Z,67.72
2018-12-16T01:29:08.386Z,70.62
2018-12-16T01:31:37.481Z,76.57
2018-12-16T01:34:06.576Z,77.27
2018-12-16T01:36:35.986Z,76.42
2018-12-16T01:39:07.270Z,75.90
2018-12-16T01:41:36.400Z,67.75
2018-12-16T01:44:06.042Z,73.42
2018-12-16T01:46:35.124Z,78.65
2018-12-16T01:49:04.372Z,82.15
2018-12-16T01:51:33.638Z,79.58
2018-12-16T01:54:02.698Z,70.62
2018-12-16T01:56:31.808Z,75.25
2018-12-16T01:59:00.966Z,69.72
2018-12-16T02:01:30.024Z,73.35
2018-12-16T02:03:59.132Z,71.28
2018-12-16T02:06:28.375Z,71.20
2018-12-16T02:08:57.432Z,72.37
2018-12-16T02:11:26.501Z,74.35
2018-12-16T02:13:56.094Z,71.77
2018-12-16T02:16:25.141Z,78.25
2018-12-16T02:18:54.212Z,80.22
2018-12-16T02:21:23.692Z,80.47
2018-12-16T02:23:52.770Z,77.42
2018-12-16T02:26:21.854Z,79.92
2018-12-16T02:28:51.076Z,80.65
2018-12-16T02:31:20.163Z,76.05
2018-12-16T02:33:49.296Z,76.00
2018-12-16T02:36:19.119Z,80.12
2018-12-16T02:38:48.272Z,76.85
2018-12-16T02:41:17.365Z,76.85
2018-12-16T02:43:46.583Z,72.60
2018-12-16T02:46:15.634Z,79.07
2018-12-16T02:48:44.763Z,74.70
2018-12-16T02:51:13.969Z,73.17
2018-12-16T02:53:43.032Z,84.30
2018-12-16T02:56:12.088Z,76.22
2018-12-16T02:58:41.828Z,78.57
2018-12-16T03:01:10.858Z,77.08
2018-12-16T03:03:39.922Z,76.62
2018-12-16T03:06:09.258Z,77.03
2018-12-16T03:08:38.316Z,78.87
2018-12-16T03:11:07.399Z,81.08
2018-12-16T03:13:36.833Z,86.95
2018-12-16T03:16:05.882Z,86.37
2018-12-16T03:18:34.948Z,85.83
2018-12-16T03:21:04.428Z,77.32
2018-12-16T03:23:33.596Z,74.47
2018-12-16T03:26:02.644Z,86.10
2018-12-16T03:28:32.026Z,83.75
2018-12-16T03:31:01.102Z,86.72
2018-12-16T03:33:30.148Z,87.17
2018-12-16T03:35:59.787Z,88.90
2018-12-16T03:38:28.821Z,82.27
2018-12-16T03:40:57.876Z,79.03
2018-12-16T03:43:27.199Z,82.22
2018-12-16T03:45:56.266Z,79.32
2018-12-16T03:48:25.310Z,85.62
2018-12-16T03:50:54.670Z,82.33
2018-12-16T03:53:23.714Z,78.92
2018-12-16T03:55:52.779Z,81.40
2018-12-16T03:58:22.006Z,93.00
2018-12-16T04:00:51.044Z,81.75
2018-12-16T04:03:20.158Z,77.00
2018-12-16T04:05:49.676Z,83.27
2018-12-16T04:08:18.733Z,85.60
2018-12-16T04:10:47.788Z,78.92
2018-12-16T04:13:17.282Z,88.37
2018-12-16T04:15:46.331Z,85.60
2018-12-16T04:18:15.382Z,82.35
2018-12-16T04:20:44.867Z,81.53
2018-12-16T04:23:13.961Z,93.37
2018-12-16T04:25:43.098Z,82.33
2018-12-16T04:28:13.103Z,75.95
2018-12-16T04:30:42.252Z,72.85
2018-12-16T04:33:11.317Z,86.80
2018-12-16T04:35:40.840Z,77.65
2018-12-16T04:38:10.048Z,72.62
2018-12-16T04:40:39.175Z,78.02
2018-12-16T04:43:08.573Z,84.28
2018-12-16T04:45:38.101Z,78.78
2018-12-16T04:48:07.152Z,83.78
2018-12-16T04:50:36.310Z,67.17
2018-12-16T04:53:05.383Z,56.25
2018-12-16T04:55:34.467Z,57.10
2018-12-16T04:58:03.903Z,55.98
2018-12-16T05:00:33.387Z,58.20
2018-12-16T05:03:02.590Z,55.92
2018-12-16T05:05:31.758Z,55.55
2018-12-16T05:08:00.852Z,52.83
2018-12-16T05:10:31.316Z,57.70
2018-12-16T05:13:00.824Z,53.15
2018-12-16T05:15:29.912Z,64.53
2018-12-16T05:17:58.983Z,56.45
2018-12-16T05:20:28.542Z,57.50
2018-12-16T05:22:57.571Z,55.90
2018-12-16T05:25:26.666Z,52.40
2018-12-16T05:27:56.082Z,55.25
2018-12-16T05:30:25.144Z,55.05
2018-12-16T05:32:54.239Z,54.63
2018-12-16T05:35:23.853Z,61.40
2018-12-16T05:37:52.934Z,55.45
2018-12-16T05:40:22.032Z,49.25
2018-12-16T05:42:51.458Z,49.63
2018-12-16T05:45:20.512Z,46.80
2018-12-16T05:47:49.652Z,48.95
2018-12-16T05:50:19.354Z,45.67
2018-12-16T05:52:49.220Z,49.88
2018-12-16T05:55:18.345Z,47.88
2018-12-16T05:57:47.735Z,42.25
2018-12-16T06:00:16.787Z,43.08
2018-12-16T06:02:45.879Z,45.95
2018-12-16T06:05:15.454Z,43.45
2018-12-16T06:07:44.524Z,38.25
2018-12-16T06:10:13.628Z,41.02
2018-12-16T06:12:42.824Z,41.40
2018-12-16T06:15:11.954Z,45.08
2018-12-16T06:17:41.037Z,41.30
2018-12-16T06:20:10.348Z,46.80
2018-12-16T06:22:39.400Z,42.98
2018-12-16T06:25:08.657Z,39.73
2018-12-16T06:27:37.828Z,40.20
2018-12-16T06:30:07.666Z,48.08
2018-12-16T06:32:36.780Z,38.60
2018-12-16T06:35:06.152Z,40.50
2018-12-16T06:37:35.204Z,42.53
2018-12-16T06:40:04.813Z,44.15
2018-12-16T06:42:34.340Z,44.00
2018-12-16T06:45:03.548Z,38.28
2018-12-16T06:47:32.643Z,45.48
2018-12-16T06:50:01.996Z,43.63
2018-12-16T06:52:31.060Z,38.45
2018-12-16T06:55:00.132Z,38.40
2018-12-16T06:57:29.536Z,37.00
2018-12-16T06:59:58.727Z,33.60
2018-12-16T07:02:27.842Z,33.25
2018-12-16T07:04:57.062Z,33.08
2018-12-16T07:07:26.146Z,32.35
2018-12-16T07:09:55.228Z,37.38
2018-12-16T07:12:24.894Z,31.68
2018-12-16T07:14:53.925Z,30.47
2018-12-16T07:17:23.007Z,38.15
2018-12-16T07:19:52.352Z,36.08
2018-12-16T07:22:21.492Z,30.25
2018-12-16T07:24:50.638Z,37.80
2018-12-16T07:27:20.251Z,29.30
2018-12-16T07:29:49.351Z,29.92
2018-12-16T07:32:18.432Z,30.90
2018-12-16T07:34:48.004Z,32.80
2018-12-16T07:37:19.145Z,31.70
2018-12-16T07:39:48.727Z,31.50
2018-12-16T07:42:17.755Z,30.60
2018-12-16T07:44:46.840Z,31.17
2018-12-16T07:47:16.173Z,28.97
2018-12-16T07:49:45.289Z,28.87
2018-12-16T07:52:14.357Z,26.30
2018-12-16T07:54:43.753Z,35.80
2018-12-16T07:57:12.797Z,30.67
2018-12-16T07:59:42.078Z,32.70
2018-12-16T08:02:11.654Z,29.55
2018-12-16T08:04:40.760Z,30.87
2018-12-16T08:07:09.839Z,30.07
2018-12-16T08:09:39.371Z,26.40
2018-12-16T08:12:08.468Z,26.07
2018-12-16T08:14:37.531Z,25.00
2018-12-16T08:17:06.700Z,25.40
2018-12-16T08:19:35.823Z,26.17
2018-12-16T08:22:04.876Z,36.23
2018-12-16T08:24:34.127Z,24.60
2018-12-16T08:27:03.213Z,24.93
2018-12-16T08:29:32.282Z,31.20
2018-12-16T08:32:01.702Z,28.13
2018-12-16T08:34:30.790Z,27.17
2018-12-16T08:36:59.876Z,30.10
2018-12-16T08:39:29.323Z,30.37
2018-12-16T08:41:58.384Z,28.90
2018-12-16T08:44:27.442Z,27.33
2018-12-16T08:46:56.892Z,29.03
2018-12-16T08:49:26.019Z,31.80
2018-12-16T08:51:55.059Z,32.10
2018-12-16T08:54:30.078Z,36.73
2018-12-16T08:56:55.735Z,34.43
2018-12-16T08:59:25.052Z,33.67
2018-12-16T09:01:54.204Z,33.63
2018-12-16T09:04:23.618Z,31.17
2018-12-16T09:06:53.000Z,35.13
2018-12-16T09:09:22.335Z,30.83
2018-12-16T09:11:51.436Z,32.63
2018-12-16T09:14:20.618Z,30.10
2018-12-16T09:16:49.668Z,27.60
2018-12-16T09:19:18.749Z,32.10
2018-12-16T09:21:48.018Z,34.37
2018-12-16T09:24:17.086Z,37.73
2018-12-16T09:26:46.711Z,27.60
2018-12-16T09:29:16.035Z,34.60
2018-12-16T09:31:45.082Z,29.87
2018-12-16T09:34:14.114Z,35.37
2018-12-16T09:36:43.672Z,37.10
2018-12-16T09:39:12.680Z,37.90
2018-12-16T09:41:41.749Z,34.87
2018-12-16T09:44:10.916Z,42.13
2018-12-16T09:46:39.952Z,34.77
2018-12-16T09:49:09.064Z,40.20
2018-12-16T09:51:38.858Z,42.00
2018-12-16T09:54:07.874Z,37.87
2018-12-16T09:56:37.028Z,43.17
2018-12-16T09:59:06.267Z,43.47
2018-12-16T10:01:35.310Z,42.30
2018-12-16T10:04:04.538Z,40.73
2018-12-16T10:06:33.864Z,42.30
2018-12-16T10:09:03.560Z,39.90
2018-12-16T10:11:32.638Z,36.67
2018-12-16T10:14:01.776Z,40.07
2018-12-16T10:16:30.819Z,40.83
2018-12-16T10:18:59.867Z,39.67
2018-12-16T10:21:29.372Z,34.93
2018-12-16T10:23:58.414Z,38.23
2018-12-16T10:26:27.515Z,37.07
2018-12-16T10:28:56.764Z,37.97
2018-12-16T10:31:25.800Z,37.60
2018-12-16T10:33:55.078Z,39.13
2018-12-16T10:36:24.722Z,38.03
2018-12-16T10:38:53.770Z,39.73
2018-12-16T10:41:23.052Z,39.80
2018-12-16T10:43:52.444Z,38.00
2018-12-16T10:46:21.616Z,40.23
2018-12-16T10:48:50.701Z,36.10
2018-12-16T10:51:19.908Z,39.30
2018-12-16T10:53:48.910Z,37.97
2018-12-16T10:56:18.054Z,38.30
2018-12-16T10:58:47.268Z,33.67
2018-12-16T11:01:21.516Z,45.27
2018-12-16T11:03:50.851Z,38.10
2018-12-16T11:06:19.891Z,36.60
2018-12-16T11:08:49.374Z,38.97
2018-12-16T11:11:18.912Z,38.27
2018-12-16T11:13:47.948Z,36.20
2018-12-16T11:16:17.076Z,38.10
2018-12-16T11:18:46.370Z,44.43
2018-12-16T11:21:15.561Z,45.40
2018-12-16T11:23:44.654Z,33.67
2018-12-16T11:26:14.404Z,40.93
2018-12-16T11:28:43.423Z,42.07
2018-12-16T11:31:12.493Z,39.83
2018-12-16T11:33:41.830Z,39.47
2018-12-16T11:36:11.147Z,38.60
2018-12-16T11:38:40.265Z,40.10
2018-12-16T11:41:09.589Z,43.47
2018-12-16T11:43:38.630Z,40.57
2018-12-16T11:46:07.667Z,41.23
2018-12-16T11:48:36.849Z,39.80
2018-12-16T11:51:05.894Z,38.73
2018-12-16T11:53:35.279Z,37.70
2018-12-16T11:56:04.921Z,40.90
2018-12-16T11:58:33.970Z,36.13
2018-12-16T12:01:03.005Z,41.83
2018-12-16T12:03:32.503Z,44.70
2018-12-16T12:06:01.556Z,41.97
2018-12-16T12:08:30.687Z,36.37
2018-12-16T12:11:00.093Z,42.20
2018-12-16T12:13:29.275Z,40.63
2018-12-16T12:15:58.321Z,35.27
2018-12-16T12:18:27.713Z,35.67
2018-12-16T12:20:56.795Z,41.00
2018-12-16T12:23:25.879Z,36.53
2018-12-16T12:25:55.131Z,42.53
2018-12-16T12:28:24.762Z,40.17
2018-12-16T12:30:53.845Z,43.10
2018-12-16T12:33:23.026Z,43.37
2018-12-16T12:35:52.106Z,41.67
2018-12-16T12:38:21.148Z,43.37
2018-12-16T12:40:50.315Z,45.37
2018-12-16T12:43:19.411Z,46.00
2018-12-16T12:45:48.479Z,39.93
2018-12-16T12:48:17.883Z,45.57
2018-12-16T12:50:46.925Z,42.37
2018-12-16T12:53:16.002Z,48.07
2018-12-16T12:55:45.344Z,41.57
2018-12-16T12:58:14.453Z,42.70
2018-12-16T13:00:43.502Z,39.50
2018-12-16T13:03:12.753Z,39.30
2018-12-16T13:05:41.872Z,45.33
2018-12-16T13:08:10.962Z,38.80
2018-12-16T13:10:40.426Z,38.87
2018-12-16T13:13:09.506Z,35.97
2018-12-16T13:15:38.560Z,42.10
2018-12-16T13:18:07.812Z,40.87
2018-12-16T13:20:36.899Z,35.13
2018-12-16T13:23:06.025Z,38.60
2018-12-16T13:25:46.946Z,38.47
2018-12-16T13:28:16.183Z,40.27
2018-12-16T13:30:45.259Z,40.40
2018-12-16T13:33:14.850Z,41.37
2018-12-16T13:35:43.872Z,42.67
2018-12-16T13:38:12.919Z,42.13
2018-12-16T13:40:42.231Z,35.40
2018-12-16T13:43:11.291Z,41.50
2018-12-16T13:45:40.343Z,34.07
2018-12-16T13:48:09.863Z,34.63
2018-12-16T13:50:38.887Z,36.83
2018-12-16T13:53:08.014Z,34.63
2018-12-16T13:55:40.735Z,39.87
2018-12-16T13:58:08.637Z,37.80
2018-12-16T14:00:37.734Z,48.53
2018-12-16T14:03:06.950Z,44.00
2018-12-16T14:05:35.969Z,33.07
2018-12-16T14:08:05.207Z,39.00
2018-12-16T14:10:35.265Z,35.50
2018-12-16T14:13:04.454Z,40.80
2018-12-16T14:15:33.568Z,47.40
2018-12-16T14:18:03.008Z,40.10
2018-12-16T14:20:32.056Z,42.07
2018-12-16T14:23:01.737Z,32.60
2018-12-16T14:25:31.063Z,27.83
2018-12-16T14:28:00.104Z,27.27
2018-12-16T14:30:29.220Z,26.70
2018-12-16T14:32:58.492Z,28.97
2018-12-16T14:35:27.853Z,32.73
2018-12-16T14:37:57.289Z,25.00
2018-12-16T14:40:26.695Z,26.43
2018-12-16T14:42:55.725Z,29.07
2018-12-16T14:45:24.867Z,27.97
2018-12-16T14:47:54.300Z,29.50
2018-12-16T14:50:23.501Z,23.17
2018-12-16T14:52:52.609Z,26.60
2018-12-16T14:55:22.050Z,27.57
2018-12-16T14:57:51.067Z,41.70
2018-12-16T15:00:20.307Z,39.10
2018-12-16T15:03:01.805Z,47.00
2018-12-16T15:05:31.507Z,44.63
2018-12-16T15:08:00.969Z,233.37
2018-12-16T15:10:30.049Z,50.07
2018-12-16T15:12:59.209Z,62.97
2018-12-16T15:15:28.735Z,42.40
2018-12-16T15:17:57.755Z,55.13
2018-12-16T15:20:26.851Z,43.53
2018-12-16T15:22:56.152Z,42.63
2018-12-16T15:25:25.203Z,51.27
2018-12-16T15:27:54.310Z,49.40
2018-12-16T15:30:23.915Z,45.17
2018-12-16T15:32:52.942Z,48.00
2018-12-16T15:35:22.030Z,51.63
2018-12-16T15:37:51.823Z,43.67
2018-12-16T15:40:21.023Z,38.70
2018-12-16T15:42:50.121Z,38.93
2018-12-16T15:45:19.722Z,29.20
2018-12-16T15:47:48.731Z,40.60
2018-12-16T15:50:17.924Z,40.27
2018-12-16T15:52:47.316Z,50.63
2018-12-16T15:55:16.405Z,46.73
2018-12-16T15:57:45.503Z,53.77
2018-12-16T16:00:15.056Z,77.10
2018-12-16T16:02:44.112Z,38.63
2018-12-16T16:05:13.220Z,50.07
2018-12-16T16:07:42.639Z,42.60
2018-12-16T16:10:11.702Z,52.53
2018-12-16T16:12:41.099Z,34.43
2018-12-16T16:15:10.450Z,48.50
2018-12-16T16:17:39.509Z,34.97
2018-12-16T16:20:08.766Z,31.87
2018-12-16T16:22:38.299Z,34.30
2018-12-16T16:25:07.581Z,29.00
2018-12-16T16:27:36.799Z,24.40
2018-12-16T16:30:07.065Z,26.10
2018-12-16T16:32:36.151Z,24.80
2018-12-16T16:35:05.683Z,49.90
2018-12-16T16:37:35.332Z,34.83
2018-12-16T16:40:05.003Z,34.63
2018-12-16T16:42:34.067Z,33.77
2018-12-16T16:45:03.535Z,31.33
2018-12-16T16:47:32.583Z,30.40
2018-12-16T16:50:01.664Z,27.20
2018-12-16T16:52:30.961Z,29.50
2018-12-16T16:55:00.357Z,26.00
2018-12-16T16:57:29.434Z,22.97
2018-12-16T16:59:58.907Z,23.67
2018-12-16T17:02:28.027Z,27.27
2018-12-16T17:04:57.080Z,25.87
2018-12-16T17:07:26.457Z,26.57
2018-12-16T17:09:55.660Z,27.87
2018-12-16T17:12:24.704Z,26.23
2018-12-16T17:14:54.038Z,28.97
2018-12-16T17:17:23.077Z,27.03
2018-12-16T17:19:52.148Z,26.37
2018-12-16T17:22:21.355Z,32.90
2018-12-16T17:24:50.431Z,42.17
2018-12-16T17:27:19.518Z,33.17
2018-12-16T17:29:48.691Z,52.07
2018-12-16T17:32:17.805Z,47.77
2018-12-16T17:34:46.887Z,56.63
2018-12-16T17:37:16.203Z,59.17
2018-12-16T17:39:45.275Z,81.70
2018-12-16T17:42:14.331Z,109.47
2018-12-16T17:44:43.543Z,71.63
2018-12-16T17:47:12.657Z,60.77
2018-12-16T17:49:41.740Z,51.87
2018-12-16T17:52:11.085Z,63.10
2018-12-16T17:54:40.141Z,67.87
2018-12-16T17:57:09.227Z,67.63
2018-12-16T17:59:38.502Z,52.20
2018-12-16T18:02:07.553Z,45.33
2018-12-16T18:04:36.627Z,94.50
2018-12-16T18:07:05.970Z,255.90
2018-12-16T18:09:35.075Z,72.10
2018-12-16T18:12:04.177Z,66.53
2018-12-16T18:14:33.376Z,60.17
2018-12-16T18:17:03.354Z,65.20
2018-12-16T18:19:32.431Z,64.40
2018-12-16T18:22:01.656Z,68.37
2018-12-16T18:24:30.764Z,58.10
2018-12-16T18:26:59.840Z,69.83
2018-12-16T18:29:29.094Z,60.47
2018-12-16T18:31:58.148Z,63.23
2018-12-16T18:34:27.227Z,59.23
2018-12-16T18:36:56.646Z,56.03
2018-12-16T18:39:25.745Z,59.53
2018-12-16T18:41:54.962Z,67.73
2018-12-16T18:44:24.561Z,53.27
2018-12-16T18:46:53.611Z,49.47
2018-12-16T18:49:22.660Z,55.93
2018-12-16T18:51:51.880Z,53.30
2018-12-16T18:54:20.957Z,73.27
2018-12-16T18:56:51.276Z,56.97
2018-12-16T18:59:20.826Z,51.40
2018-12-16T19:01:49.883Z,53.07
2018-12-16T19:04:21.568Z,177.10
2018-12-16T19:06:50.603Z,71.73
2018-12-16T19:09:19.698Z,114.07
2018-12-16T19:11:49.300Z,78.50
2018-12-16T19:14:18.484Z,57.23
2018-12-16T19:16:47.541Z,50.33
2018-12-16T19:19:17.414Z,57.77
2018-12-16T19:21:46.462Z,57.13
2018-12-16T19:24:15.503Z,53.93
2018-12-16T19:26:44.825Z,81.67
2018-12-16T19:29:13.877Z,92.13
2018-12-16T19:31:43.023Z,79.97
2018-12-16T19:34:12.385Z,79.10
2018-12-16T19:36:41.469Z,152.37
2018-12-16T19:39:10.591Z,72.93
2018-12-16T19:41:39.999Z,83.73
2018-12-16T19:44:09.772Z,80.33
2018-12-16T19:46:38.905Z,69.00
2018-12-16T19:49:08.062Z,74.47
2018-12-16T19:51:37.199Z,89.73
2018-12-16T19:54:06.276Z,92.27
2018-12-16T19:56:38.845Z,68.40
2018-12-16T19:59:07.967Z,94.43
2018-12-16T20:01:37.045Z,71.80
2018-12-16T20:04:11.673Z,87.53
2018-12-16T20:06:44.612Z,93.73
2018-12-16T20:09:14.279Z,87.13
2018-12-16T20:11:43.330Z,74.03
2018-12-16T20:14:13.160Z,72.57
2018-12-16T20:16:42.476Z,121.40
2018-12-16T20:19:11.523Z,83.20
2018-12-16T20:21:41.047Z,72.03
2018-12-16T20:24:10.365Z,146.00
2018-12-16T20:26:39.413Z,107.00
2018-12-16T20:29:08.658Z,85.73
2018-12-16T20:31:37.962Z,55.73
2018-12-16T20:34:07.014Z,83.00
2018-12-16T20:36:36.112Z,73.30
2018-12-16T20:39:07.419Z,54.33
2018-12-16T20:41:36.515Z,42.00
2018-12-16T20:44:05.570Z,66.20
2018-12-16T20:46:34.980Z,48.83
2018-12-16T20:49:04.209Z,73.77
2018-12-16T20:51:33.318Z,80.70
2018-12-16T20:54:02.500Z,61.90
2018-12-16T20:56:31.608Z,65.40
2018-12-16T20:59:00.816Z,60.23
2018-12-16T21:01:30.170Z,89.00
2018-12-16T21:03:59.295Z,218.27
2018-12-16T21:06:28.353Z,135.13
2018-12-16T21:08:57.758Z,113.53
2018-12-16T21:11:32.117Z,286.27
2018-12-16T21:14:06.817Z,152.00
2018-12-16T21:16:41.182Z,166.13
2018-12-16T21:19:10.356Z,93.77
2018-12-16T21:21:39.490Z,59.73
2018-12-16T21:24:08.703Z,66.93
2018-12-16T21:26:38.227Z,56.33
2018-12-16T21:29:07.284Z,49.93
2018-12-16T21:31:36.427Z,49.93
2018-12-16T21:34:05.591Z,56.97
2018-12-16T21:36:34.676Z,50.07
2018-12-16T21:39:04.659Z,44.77
2018-12-16T21:41:34.028Z,42.70
2018-12-16T21:44:03.076Z,43.40
2018-12-16T21:46:32.206Z,49.97
2018-12-16T21:49:01.392Z,42.77
2018-12-16T21:51:30.426Z,52.10
2018-12-16T21:53:59.508Z,48.30
2018-12-16T21:56:28.903Z,49.67
2018-12-16T21:58:58.968Z,53.50
2018-12-16T22:01:28.144Z,157.40
2018-12-16T22:03:57.739Z,117.50
2018-12-16T22:06:27.349Z,56.30
2018-12-16T22:08:56.421Z,57.57
2018-12-16T22:11:25.761Z,74.63
2018-12-16T22:13:54.878Z,56.00
2018-12-16T22:16:23.956Z,51.20
2018-12-16T22:18:53.278Z,48.53
2018-12-16T22:21:22.359Z,58.93
2018-12-16T22:23:51.414Z,46.17
2018-12-16T22:26:20.867Z,50.73
2018-12-16T22:28:49.973Z,93.83
2018-12-16T22:31:19.063Z,71.47
2018-12-16T22:33:48.706Z,67.50
2018-12-16T22:36:17.895Z,50.80
2018-12-16T22:38:46.957Z,47.27
2018-12-16T22:41:16.298Z,63.73
2018-12-16T22:43:45.400Z,65.70
2018-12-16T22:46:14.790Z,81.83
2018-12-16T22:48:44.186Z,84.97
2018-12-16T22:51:13.276Z,64.50
2018-12-16T22:53:42.318Z,74.20
2018-12-16T22:56:11.482Z,68.47
2018-12-16T22:58:41.275Z,211.90
2018-12-16T23:01:17.318Z,56.00
2018-12-16T23:03:46.505Z,47.10
2018-12-16T23:06:15.627Z,43.27
2018-12-16T23:08:45.034Z,45.27
2018-12-16T23:11:14.146Z,33.33
2018-12-16T23:13:43.241Z,40.27
2018-12-16T23:16:12.637Z,39.10
2018-12-16T23:18:42.116Z,46.60
2018-12-16T23:21:11.615Z,45.53
2018-12-16T23:23:41.167Z,46.07
2018-12-16T23:26:10.248Z,40.70
2018-12-16T23:28:39.882Z,44.60
2018-12-16T23:31:09.191Z,40.33
2018-12-16T23:33:38.272Z,47.20
2018-12-16T23:36:07.376Z,35.73
2018-12-16T23:38:36.648Z,40.20
2018-12-16T23:41:05.698Z,45.27
2018-12-16T23:43:34.862Z,38.27
2018-12-16T23:46:04.564Z,46.30
2018-12-16T23:48:33.618Z,38.87
2018-12-16T23:51:02.736Z,40.37
2018-12-16T23:53:32.139Z,29.37
2018-12-16T23:56:01.196Z,30.30
2018-12-16T23:58:30.283Z,31.37
